Ridge, New York
Current Conditions -  °F | °C
As of 7:56 PM on Friday 24 Oct 2014 (Local Time) from KHWV Reporting Station
Broken Clouds Broken Clouds  
Wind Chill: 54°   Ceiling: 4400
Heat Index: 54°   Visibility: 10mi
Dew Point: 45°   Wind: 6mph
Humidity: 72%   Direction: 330°NNW
Pressure: 29.79"   Gusts: NA
Location:  40.89°N, 72.89°W
Report Text: KHWV 242356Z AUTO 33005KT 10SM BKN044 12/07 A2979 RMK AO2 SLP089 T01220072 10133 20122 53005 TSNO
Loading
Personal Weather Stations






























Interactive Weather Map
Tropical Storm Tracking
New forecast layout! Learn more

10-Day Weather Forecast

Advertisements
Track Severe Weather on mobile